sensor_id;sensor_type;location;lat;lon;timestamp;pressure;altitude;pressure_sealevel;temperature;humidity
7586;BME280;12459;42.646;23.292;2022-11-15T00:01:37;94169.78;;;5.85;100.00
7586;BME280;12459;42.646;23.292;2022-11-15T00:16:39;94158.44;;;5.39;100.00
7586;BME280;12459;42.646;23.292;2022-11-15T00:31:41;94145.13;;;4.93;100.00
7586;BME280;12459;42.646;23.292;2022-11-15T00:46:42;94143.88;;;4.87;100.00
7586;BME280;12459;42.646;23.292;2022-11-15T01:01:44;94136.78;;;4.72;100.00
7586;BME280;12459;42.646;23.292;2022-11-15T01:16:52;94129.72;;;5.02;100.00
7586;BME280;12459;42.646;23.292;2022-11-15T01:32:01;94121.09;;;5.81;100.00
7586;BME280;12459;42.646;23.292;2022-11-15T01:47:11;94122.13;;;4.39;100.00
7586;BME280;12459;42.646;23.292;2022-11-15T02:02:13;94116.25;;;5.14;100.00
7586;BME280;12459;42.646;23.292;2022-11-15T02:32:26;94105.38;;;4.55;100.00
7586;BME280;12459;42.646;23.292;2022-11-15T02:47:33;94101.41;;;4.87;100.00
7586;BME280;12459;42.646;23.292;2022-11-15T03:32:57;94092.19;;;6.69;100.00
7586;BME280;12459;42.646;23.292;2022-11-15T03:48:01;94069.03;;;6.73;100.00
7586;BME280;12459;42.646;23.292;2022-11-15T04:03:06;94064.19;;;6.16;100.00
7586;BME280;12459;42.646;23.292;2022-11-15T04:18:09;94061.28;;;4.69;100.00
7586;BME280;12459;42.646;23.292;2022-11-15T04:33:10;94055.84;;;5.87;100.00
7586;BME280;12459;42.646;23.292;2022-11-15T04:48:12;94058.97;;;5.93;100.00
7586;BME280;12459;42.646;23.292;2022-11-15T05:03:14;94066.81;;;4.61;100.00
7586;BME280;12459;42.646;23.292;2022-11-15T05:18:34;94060.84;;;5.36;100.00
7586;BME280;12459;42.646;23.292;2022-11-15T05:33:36;94049.94;;;4.95;100.00
7586;BME280;12459;42.646;23.292;2022-11-15T05:48:38;94046.41;;;6.57;100.00
7586;BME280;12459;42.646;23.292;2022-11-15T06:03:41;94054.50;;;6.30;100.00
7586;BME280;12459;42.646;23.292;2022-11-15T06:18:43;94062.97;;;6.77;100.00
7586;BME280;12459;42.646;23.292;2022-11-15T06:33:44;94051.91;;;6.37;100.00
7586;BME280;12459;42.646;23.292;2022-11-15T06:48:46;94051.59;;;6.83;100.00
7586;BME280;12459;42.646;23.292;2022-11-15T07:03:49;94057.03;;;6.94;100.00
7586;BME280;12459;42.646;23.292;2022-11-15T07:18:50;94039.63;;;7.07;100.00
7586;BME280;12459;42.646;23.292;2022-11-15T07:33:52;94055.75;;;5.80;100.00
7586;BME280;12459;42.646;23.292;2022-11-15T07:48:53;94046.97;;;7.79;100.00
7586;BME280;12459;42.646;23.292;2022-11-15T08:03:55;94045.03;;;7.73;100.00
7586;BME280;12459;42.646;23.292;2022-11-15T08:18:56;94035.34;;;8.16;100.00
7586;BME280;12459;42.646;23.292;2022-11-15T08:33:58;94034.28;;;7.03;100.00
7586;BME280;12459;42.646;23.292;2022-11-15T08:48:59;94017.97;;;7.67;100.00
7586;BME280;12459;42.646;23.292;2022-11-15T09:04:01;94003.84;;;7.63;100.00
7586;BME280;12459;42.646;23.292;2022-11-15T09:19:02;93986.44;;;7.21;100.00
7586;BME280;12459;42.646;23.292;2022-11-15T09:34:11;93979.69;;;7.34;100.00
7586;BME280;12459;42.646;23.292;2022-11-15T09:49:13;93951.13;;;7.35;100.00
7586;BME280;12459;42.646;23.292;2022-11-15T10:04:17;93941.94;;;8.30;100.00
7586;BME280;12459;42.646;23.292;2022-11-15T10:19:22;93923.69;;;8.36;100.00
7586;BME280;12459;42.646;23.292;2022-11-15T10:34:25;93892.28;;;9.36;100.00
7586;BME280;12459;42.646;23.292;2022-11-15T10:49:28;93879.22;;;9.63;100.00
7586;BME280;12459;42.646;23.292;2022-11-15T11:04:31;93857.44;;;10.34;99.64
7586;BME280;12459;42.646;23.292;2022-11-15T11:35:14;93804.31;;;11.41;89.17
7586;BME280;12459;42.646;23.292;2022-11-15T11:50:28;93780.00;;;11.86;82.28
7586;BME280;12459;42.646;23.292;2022-11-15T12:05:43;93755.09;;;12.09;81.29
7586;BME280;12459;42.646;23.292;2022-11-15T12:20:56;93723.84;;;14.13;65.96
7586;BME280;12459;42.646;23.292;2022-11-15T12:36:03;93712.63;;;13.82;70.40
7586;BME280;12459;42.646;23.292;2022-11-15T12:51:05;93700.44;;;12.19;75.29
7586;BME280;12459;42.646;23.292;2022-11-15T13:06:08;93695.59;;;11.87;77.77
7586;BME280;12459;42.646;23.292;2022-11-15T13:21:23;93671.66;;;11.42;80.08
7586;BME280;12459;42.646;23.292;2022-11-15T13:36:43;93665.94;;;11.40;81.11
7586;BME280;12459;42.646;23.292;2022-11-15T14:06:47;93654.88;;;10.47;91.35
7586;BME280;12459;42.646;23.292;2022-11-15T14:37:18;93654.72;;;9.27;100.00
7586;BME280;12459;42.646;23.292;2022-11-15T14:52:28;93649.41;;;8.47;100.00
7586;BME280;12459;42.646;23.292;2022-11-15T15:07:33;93659.72;;;8.30;100.00
7586;BME280;12459;42.646;23.292;2022-11-15T15:22:35;93643.75;;;8.09;100.00
7586;BME280;12459;42.646;23.292;2022-11-15T15:37:37;93617.91;;;7.78;100.00
7586;BME280;12459;42.646;23.292;2022-11-15T15:52:38;93627.22;;;8.64;100.00
7586;BME280;12459;42.646;23.292;2022-11-15T16:07:40;93614.50;;;8.86;100.00
7586;BME280;12459;42.646;23.292;2022-11-15T16:22:44;93634.44;;;9.37;100.00
7586;BME280;12459;42.646;23.292;2022-11-15T16:37:45;93642.19;;;8.44;100.00
7586;BME280;12459;42.646;23.292;2022-11-15T16:52:49;93624.00;;;7.78;100.00
7586;BME280;12459;42.646;23.292;2022-11-15T17:07:51;93597.25;;;8.10;100.00
7586;BME280;12459;42.646;23.292;2022-11-15T17:22:54;93596.41;;;9.11;100.00
7586;BME280;12459;42.646;23.292;2022-11-15T17:37:56;93591.63;;;7.16;100.00
7586;BME280;12459;42.646;23.292;2022-11-15T17:52:58;93584.38;;;7.69;100.00
7586;BME280;12459;42.646;23.292;2022-11-15T18:07:59;93587.84;;;7.10;100.00
7586;BME280;12459;42.646;23.292;2022-11-15T18:23:01;93571.47;;;7.36;100.00
7586;BME280;12459;42.646;23.292;2022-11-15T18:38:02;93559.22;;;6.43;100.00
7586;BME280;12459;42.646;23.292;2022-11-15T18:53:04;93559.84;;;6.15;100.00
7586;BME280;12459;42.646;23.292;2022-11-15T19:08:05;93543.69;;;6.94;100.00
7586;BME280;12459;42.646;23.292;2022-11-15T19:23:07;93540.88;;;6.23;100.00
7586;BME280;12459;42.646;23.292;2022-11-15T19:38:08;93519.72;;;7.01;100.00
7586;BME280;12459;42.646;23.292;2022-11-15T19:53:10;93515.91;;;7.31;100.00
7586;BME280;12459;42.646;23.292;2022-11-15T20:08:11;93550.91;;;7.40;100.00
7586;BME280;12459;42.646;23.292;2022-11-15T20:23:13;93554.28;;;6.52;100.00
7586;BME280;12459;42.646;23.292;2022-11-15T20:38:14;93536.78;;;6.47;100.00
7586;BME280;12459;42.646;23.292;2022-11-15T20:53:17;93516.53;;;6.14;100.00
7586;BME280;12459;42.646;23.292;2022-11-15T21:08:18;93498.69;;;6.15;100.00
7586;BME280;12459;42.646;23.292;2022-11-15T21:23:20;93470.22;;;7.00;100.00
7586;BME280;12459;42.646;23.292;2022-11-15T21:38:22;93456.53;;;7.02;100.00
7586;BME280;12459;42.646;23.292;2022-11-15T21:53:24;93445.00;;;7.58;100.00
7586;BME280;12459;42.646;23.292;2022-11-15T22:16:06;93423.41;;;7.14;100.00
7586;BME280;12459;42.646;23.292;2022-11-15T22:31:08;93407.13;;;6.48;100.00
7586;BME280;12459;42.646;23.292;2022-11-15T22:46:10;93382.72;;;6.95;100.00
7586;BME280;12459;42.646;23.292;2022-11-15T23:01:19;93383.41;;;7.17;100.00
7586;BME280;12459;42.646;23.292;2022-11-15T23:16:21;93387.25;;;5.74;100.00
7586;BME280;12459;42.646;23.292;2022-11-15T23:31:23;93331.09;;;6.18;100.00
7586;BME280;12459;42.646;23.292;2022-11-15T23:46:43;93350.84;;;6.17;100.00
